Time;durP1;ratioP1;P1;durP2;ratioP2;P2;SDS_P1;SDS_P2;PMS_P1;PMS_P2;Temp;Humidity;BMP_temperature;BMP_pressure;BME280_temperature;BME280_humidity;BME280_pressure;Samples;Min_cycle;Max_cycle;Signal;HPM_P1;HPM_P2
2024/01/13 00:02:09;;;;;;;9.68;4.85;;;31.80;99.90;;;;;;4975574;28;20175;-74
2024/01/13 00:04:37;;;;;;;7.85;3.70;;;32.20;99.90;;;;;;4976647;28;20186;-75
2024/01/13 00:07:04;;;;;;;11.70;4.47;;;32.50;99.90;;;;;;4976710;28;20629;-74
2024/01/13 00:09:32;;;;;;;10.57;4.22;;;32.40;99.90;;;;;;4976580;28;20180;-71
2024/01/13 00:12:01;;;;;;;11.77;4.18;;;32.80;99.90;;;;;;4976442;28;20182;-71
2024/01/13 00:14:29;;;;;;;14.57;4.22;;;32.70;99.90;;;;;;4976630;28;20194;-75
2024/01/13 00:16:57;;;;;;;13.73;4.20;;;33.10;99.90;;;;;;4976292;28;20179;-74
2024/01/13 00:19:25;;;;;;;8.82;4.20;;;33.10;99.90;;;;;;4976356;28;20226;-75
2024/01/13 00:21:52;;;;;;;9.55;3.97;;;33.20;99.90;;;;;;4976244;28;20238;-74
2024/01/13 00:24:20;;;;;;;11.05;4.25;;;33.80;99.90;;;;;;4974696;28;20271;-75
2024/01/13 00:30:10;;;;;;;9.25;4.03;;;34.60;99.90;;;;;;4975990;28;20223;-75
2024/01/13 00:32:38;;;;;;;10.02;3.30;;;35.00;99.90;;;;;;4976407;28;20187;-75
2024/01/13 00:35:06;;;;;;;11.20;4.15;;;34.80;99.90;;;;;;4976026;28;20202;-72
2024/01/13 00:37:34;;;;;;;9.65;3.60;;;34.30;99.90;;;;;;4976316;28;20262;-74
2024/01/13 00:40:02;;;;;;;8.93;3.25;;;34.20;99.90;;;;;;4976063;28;20214;-71
2024/01/13 00:42:29;;;;;;;12.73;3.78;;;34.40;99.90;;;;;;4976281;28;20637;-74
2024/01/13 00:44:57;;;;;;;11.05;3.10;;;34.80;99.90;;;;;;4976463;28;20190;-73
2024/01/13 00:47:24;;;;;;;8.40;3.00;;;34.50;99.90;;;;;;4976220;28;20182;-74
2024/01/13 00:49:52;;;;;;;13.75;3.08;;;34.20;99.90;;;;;;4976121;28;20206;-74
2024/01/13 00:52:20;;;;;;;10.77;4.22;;;34.30;99.90;;;;;;4975773;28;20176;-75
2024/01/13 00:54:47;;;;;;;6.88;3.25;;;34.30;99.90;;;;;;4975917;28;20180;-75
2024/01/13 00:57:15;;;;;;;8.32;3.40;;;34.20;99.90;;;;;;4975880;28;20637;-74
2024/01/13 00:59:43;;;;;;;11.07;3.35;;;34.30;99.90;;;;;;4975762;28;20223;-75
2024/01/13 01:02:10;;;;;;;8.52;2.97;;;34.10;99.90;;;;;;4975882;28;20186;-75
2024/01/13 01:04:38;;;;;;;6.15;2.70;;;34.10;94.10;;;;;;4975815;28;20179;-71
2024/01/13 01:07:06;;;;;;;8.20;2.72;;;34.30;94.60;;;;;;4975860;28;20176;-71
2024/01/13 01:09:33;;;;;;;7.90;2.55;;;34.70;90.20;;;;;;4975709;28;20187;-71
2024/01/13 01:12:01;;;;;;;8.38;2.38;;;34.50;88.00;;;;;;4975587;28;20172;-71
2024/01/13 01:14:29;;;;;;;9.95;2.83;;;34.50;69.20;;;;;;4975471;28;20257;-72
2024/01/13 01:16:57;;;;;;;7.30;2.38;;;34.60;86.40;;;;;;4975596;28;20186;-75
2024/01/13 01:19:24;;;;;;;6.85;2.25;;;35.00;57.30;;;;;;4975550;28;20207;-75
2024/01/13 01:21:52;;;;;;;6.07;2.83;;;34.80;58.90;;;;;;4975139;28;20219;-75
2024/01/13 01:24:20;;;;;;;8.30;2.92;;;34.90;67.60;;;;;;4973977;28;20191;-71
2024/01/13 01:26:47;;;;;;;7.65;2.78;;;35.20;65.50;;;;;;4975188;28;20245;-72
2024/01/13 01:29:15;;;;;;;7.93;3.78;;;35.20;65.40;;;;;;4975175;28;20633;-75
2024/01/13 01:31:43;;;;;;;7.80;2.97;;;35.30;70.90;;;;;;4975190;28;20639;-71
2024/01/13 01:34:10;;;;;;;10.13;3.17;;;35.20;71.90;;;;;;4975410;28;20541;-75
2024/01/13 01:36:38;;;;;;;7.40;2.88;;;35.50;71.90;;;;;;4975876;28;20261;-72
2024/01/13 01:39:06;;;;;;;6.20;2.83;;;35.00;56.70;;;;;;4975020;28;20211;-72
2024/01/13 01:41:34;;;;;;;10.77;2.95;;;35.20;57.70;;;;;;4975319;28;20532;-72
2024/01/13 01:44:01;;;;;;;6.60;2.70;;;35.00;59.30;;;;;;4975234;28;20635;-72
2024/01/13 01:46:32;;;;;;;6.80;2.63;;;35.30;53.10;;;;;;4975315;28;20183;-73
2024/01/13 01:49:00;;;;;;;5.82;2.83;;;35.40;51.30;;;;;;4990003;28;20266;-74
2024/01/13 01:51:30;;;;;;;6.20;2.40;;;35.90;49.70;;;;;;4974944;28;20179;-72
2024/01/13 01:53:59;;;;;;;8.90;3.13;;;36.40;54.80;;;;;;4974726;28;20179;-74
2024/01/13 01:56:29;;;;;;;6.82;2.75;;;36.60;46.20;;;;;;4975025;28;20706;-73
2024/01/13 01:58:57;;;;;;;11.40;3.08;;;36.20;42.10;;;;;;4974634;28;20211;-74
2024/01/13 02:01:25;;;;;;;5.15;2.55;;;36.20;44.60;;;;;;4974828;28;20183;-75
2024/01/13 02:03:54;;;;;;;5.80;2.88;;;35.70;51.10;;;;;;4974571;28;20176;-71
2024/01/13 02:06:21;;;;;;;5.13;2.38;;;35.80;55.70;;;;;;4974581;28;20536;-71
2024/01/13 02:08:50;;;;;;;4.80;2.97;;;35.90;43.90;;;;;;4974404;28;20206;-71
2024/01/13 02:11:19;;;;;;;5.15;2.63;;;35.80;57.30;;;;;;4974346;28;20175;-72
2024/01/13 02:13:48;;;;;;;7.05;3.35;;;36.00;44.70;;;;;;4974194;28;20270;-73
2024/01/13 02:16:17;;;;;;;6.20;3.10;;;35.90;54.70;;;;;;4973060;28;20623;-72
2024/01/13 02:18:45;;;;;;;6.88;2.97;;;36.20;42.70;;;;;;4981716;28;20223;-73
2024/01/13 02:21:13;;;;;;;7.25;3.20;;;35.90;55.00;;;;;;4990206;28;20250;-75
2024/01/13 02:23:41;;;;;;;6.07;2.70;;;36.30;53.90;;;;;;4977402;28;20171;-71
2024/01/13 02:26:08;;;;;;;9.05;3.03;;;36.60;47.50;;;;;;4974634;28;20183;-74
2024/01/13 02:28:36;;;;;;;7.80;2.92;;;36.10;44.10;;;;;;4974578;28;20591;-71
2024/01/13 02:31:04;;;;;;;8.13;3.35;;;36.20;40.80;;;;;;4974818;28;20178;-75
2024/01/13 02:33:32;;;;;;;6.18;2.53;;;36.30;36.80;;;;;;4974462;28;20172;-74
2024/01/13 02:35:59;;;;;;;8.15;2.65;;;36.80;37.00;;;;;;4974491;28;20180;-72
2024/01/13 02:38:27;;;;;;;5.40;2.25;;;36.80;25.70;;;;;;4974323;28;20262;-75
2024/01/13 02:40:55;;;;;;;4.05;2.38;;;36.80;23.40;;;;;;4974014;28;20206;-75
2024/01/13 02:43:22;;;;;;;5.63;2.55;;;36.60;31.60;;;;;;4972954;28;20281;-74
2024/01/13 02:45:50;;;;;;;6.40;2.38;;;36.60;38.10;;;;;;4974060;28;20182;-75
2024/01/13 02:48:21;;;;;;;6.68;2.80;;;36.90;39.70;;;;;;4976453;28;20174;-75
2024/01/13 02:50:56;;;;;;;7.13;2.40;;;36.90;28.40;;;;;;4977361;28;20186;-74
2024/01/13 02:53:24;;;;;;;5.90;2.45;;;37.10;24.50;;;;;;4978222;28;20667;-74
2024/01/13 02:55:51;;;;;;;5.30;2.40;;;37.00;25.20;;;;;;4978157;28;20175;-76
2024/01/13 02:58:19;;;;;;;7.07;2.80;;;36.40;24.40;;;;;;4978311;28;20183;-74
2024/01/13 03:00:47;;;;;;;5.47;2.70;;;36.60;35.10;;;;;;4978109;28;20581;-75
2024/01/13 03:03:14;;;;;;;5.75;2.83;;;36.90;29.60;;;;;;4978357;28;20171;-75
2024/01/13 03:05:42;;;;;;;6.03;2.40;;;37.10;31.90;;;;;;4977888;28;20195;-75
2024/01/13 03:08:10;;;;;;;7.38;2.90;;;36.80;26.50;;;;;;4978172;28;20175;-74
2024/01/13 03:10:38;;;;;;;8.40;2.83;;;36.90;27.00;;;;;;4978061;28;20182;-76
2024/01/13 03:13:05;;;;;;;5.60;2.80;;;37.00;28.50;;;;;;4977889;28;20262;-75
2024/01/13 03:15:33;;;;;;;11.25;3.15;;;37.10;30.00;;;;;;4977855;28;20234;-73
2024/01/13 03:18:01;;;;;;;10.40;2.80;;;37.10;29.50;;;;;;4977935;28;20181;-75
2024/01/13 03:20:28;;;;;;;7.32;2.35;;;37.40;32.60;;;;;;4977912;28;20210;-75
2024/01/13 03:22:59;;;;;;;7.97;2.75;;;37.40;31.30;;;;;;4977541;28;20601;-76
2024/01/13 03:25:27;;;;;;;5.60;2.15;;;37.50;39.40;;;;;;4977772;28;20168;-75
2024/01/13 03:27:55;;;;;;;5.78;2.67;;;37.50;37.60;;;;;;4977714;28;20190;-76
2024/01/13 03:30:22;;;;;;;8.25;2.35;;;37.60;37.10;;;;;;4976206;28;20184;-74
2024/01/13 03:32:50;;;;;;;5.93;2.00;;;37.60;43.90;;;;;;4977685;28;20190;-76
2024/01/13 03:35:18;;;;;;;3.50;2.22;;;37.40;32.10;;;;;;4977327;28;20175;-75
2024/01/13 03:37:45;;;;;;;7.20;2.13;;;37.00;39.10;;;;;;4977441;28;20266;-75
2024/01/13 03:40:13;;;;;;;6.22;2.20;;;37.10;40.00;;;;;;4977550;28;20692;-75
2024/01/13 03:42:41;;;;;;;5.70;2.03;;;37.40;33.70;;;;;;4977806;28;20183;-76
2024/01/13 03:45:09;;;;;;;4.47;2.10;;;37.80;36.70;;;;;;4977304;28;20187;-74
2024/01/13 03:47:36;;;;;;;5.90;2.22;;;37.90;31.90;;;;;;4977509;28;20195;-74
2024/01/13 03:50:04;;;;;;;5.93;2.00;;;37.80;37.60;;;;;;4977299;28;20187;-76
2024/01/13 03:52:31;;;;;;;8.48;2.22;;;37.50;46.30;;;;;;4977223;28;20668;-75
2024/01/13 03:54:58;;;;;;;8.98;2.25;;;37.00;57.70;;;;;;4977200;28;20525;-75
2024/01/13 03:57:26;;;;;;;7.63;2.25;;;36.70;69.20;;;;;;4977171;28;20671;-74
2024/01/13 03:59:53;;;;;;;5.00;1.85;;;36.90;82.90;;;;;;4976185;28;20215;-75
2024/01/13 04:02:21;;;;;;;5.53;1.77;;;37.40;83.00;;;;;;4976967;28;20212;-76
2024/01/13 04:04:49;;;;;;;9.02;2.10;;;37.50;78.40;;;;;;4976917;28;20636;-76
2024/01/13 04:07:16;;;;;;;7.97;2.63;;;37.40;76.70;;;;;;4976671;28;20190;-75
2024/01/13 04:09:43;;;;;;;9.93;2.47;;;37.20;68.00;;;;;;4976742;28;20651;-76
2024/01/13 04:12:10;;;;;;;8.07;2.25;;;37.10;82.60;;;;;;4976752;28;20263;-75
2024/01/13 04:14:38;;;;;;;12.60;3.05;;;37.10;92.00;;;;;;4976657;28;20226;-76
2024/01/13 04:17:05;;;;;;;9.30;2.83;;;37.00;94.10;;;;;;4976725;28;20176;-77
2024/01/13 04:19:32;;;;;;;7.93;2.13;;;37.00;95.50;;;;;;4976807;28;20214;-75
2024/01/13 04:22:00;;;;;;;7.30;2.38;;;36.70;93.30;;;;;;4975220;28;20377;-77
2024/01/13 04:24:27;;;;;;;9.02;1.92;;;36.50;96.80;;;;;;4976695;28;20180;-77
2024/01/13 04:26:54;;;;;;;5.43;1.90;;;36.50;98.20;;;;;;4976595;28;20186;-76
2024/01/13 04:29:21;;;;;;;7.68;2.13;;;36.40;96.50;;;;;;4976477;28;20267;-77
2024/01/13 04:31:49;;;;;;;7.70;1.83;;;36.20;96.30;;;;;;4976493;28;20179;-76
2024/01/13 04:34:16;;;;;;;5.40;1.92;;;35.90;99.90;;;;;;4976283;28;20175;-76
2024/01/13 04:36:43;;;;;;;5.45;1.63;;;36.10;99.90;;;;;;4976581;28;20240;-76
2024/01/13 04:39:11;;;;;;;11.60;2.45;;;36.00;99.90;;;;;;4976153;28;20199;-76
2024/01/13 04:41:41;;;;;;;8.18;1.80;;;35.90;99.90;;;;;;4976116;28;20180;-73
2024/01/13 04:44:09;;;;;;;11.60;2.38;;;36.00;99.90;;;;;;4976104;28;20203;-77
2024/01/13 04:46:36;;;;;;;12.63;2.22;;;36.00;99.90;;;;;;4976371;28;20605;-76
2024/01/13 04:49:04;;;;;;;8.20;2.22;;;35.90;99.70;;;;;;4975934;28;20188;-76
2024/01/13 04:51:31;;;;;;;8.45;1.65;;;35.60;99.90;;;;;;4976096;28;20178;-73
2024/01/13 04:53:58;;;;;;;8.85;1.98;;;35.90;99.90;;;;;;4975729;28;20180;-76
2024/01/13 04:56:26;;;;;;;9.30;1.83;;;35.70;99.90;;;;;;4975861;28;20207;-77
2024/01/13 04:58:53;;;;;;;6.32;2.17;;;35.70;99.90;;;;;;4975721;28;20214;-76
2024/01/13 05:01:20;;;;;;;5.13;2.20;;;35.90;99.90;;;;;;4975775;28;20186;-73
2024/01/13 05:03:48;;;;;;;7.18;1.83;;;35.90;99.60;;;;;;4975654;28;20267;-74
2024/01/13 05:06:15;;;;;;;4.70;1.77;;;35.90;98.10;;;;;;4975729;28;20225;-76
2024/01/13 05:08:43;;;;;;;6.10;2.25;;;35.80;99.00;;;;;;4975723;28;20263;-77
2024/01/13 05:11:10;;;;;;;10.45;2.30;;;36.10;99.90;;;;;;4974453;28;20179;-77
2024/01/13 05:13:38;;;;;;;7.10;1.98;;;35.80;96.60;;;;;;4975654;28;20262;-76
2024/01/13 05:16:05;;;;;;;8.50;2.10;;;35.90;96.00;;;;;;4975617;28;20213;-76
2024/01/13 05:18:33;;;;;;;6.80;1.75;;;35.60;94.00;;;;;;4975600;28;20660;-76
2024/01/13 05:21:00;;;;;;;8.80;2.05;;;35.50;99.90;;;;;;4975463;28;20237;-75
2024/01/13 05:23:27;;;;;;;5.25;1.90;;;35.30;99.90;;;;;;4975460;28;20655;-77
2024/01/13 05:25:54;;;;;;;7.68;2.08;;;35.40;98.60;;;;;;4975455;28;20262;-76
2024/01/13 05:28:22;;;;;;;8.27;2.00;;;35.40;96.80;;;;;;4975464;28;20171;-76
2024/01/13 05:30:49;;;;;;;8.07;1.85;;;35.50;98.00;;;;;;4974140;28;20274;-75
2024/01/13 05:33:17;;;;;;;5.30;1.50;;;35.50;98.30;;;;;;4975404;28;20171;-76
2024/01/13 05:35:44;;;;;;;6.43;2.13;;;35.20;99.20;;;;;;4975469;28;20545;-76
2024/01/13 05:38:11;;;;;;;10.52;2.50;;;34.90;99.90;;;;;;4975194;28;20178;-76
2024/01/13 05:40:44;;;;;;;10.90;2.17;;;35.00;99.90;;;;;;4975177;28;20211;-76
2024/01/13 05:43:11;;;;;;;7.75;2.67;;;35.10;99.70;;;;;;4975300;28;20167;-75
2024/01/13 05:45:39;;;;;;;6.05;1.73;;;35.20;99.90;;;;;;4975248;28;20210;-77
2024/01/13 05:48:06;;;;;;;7.28;2.30;;;35.30;99.90;;;;;;4974982;28;20715;-76
2024/01/13 05:50:34;;;;;;;7.55;2.28;;;35.40;97.70;;;;;;4973568;28;20641;-77
2024/01/13 05:53:02;;;;;;;7.50;1.90;;;35.20;99.30;;;;;;4975001;28;20186;-76
2024/01/13 05:55:29;;;;;;;8.57;2.00;;;35.10;98.60;;;;;;4975086;28;20210;-77
2024/01/13 05:57:56;;;;;;;8.80;2.13;;;35.00;97.50;;;;;;4975000;28;20172;-77
2024/01/13 06:00:24;;;;;;;6.97;1.85;;;34.70;97.20;;;;;;4974892;28;20210;-76
2024/01/13 06:02:51;;;;;;;5.93;1.80;;;34.50;98.60;;;;;;4974889;28;20628;-77
2024/01/13 06:05:18;;;;;;;7.43;1.70;;;34.80;99.80;;;;;;4974560;28;20187;-77
2024/01/13 06:07:47;;;;;;;8.52;2.20;;;34.80;93.50;;;;;;4974762;28;20183;-76
2024/01/13 06:10:17;;;;;;;5.47;1.65;;;34.60;90.30;;;;;;4974657;28;20187;-77
2024/01/13 06:12:47;;;;;;;7.55;2.17;;;34.30;89.00;;;;;;4974846;28;20187;-77
2024/01/13 06:15:15;;;;;;;9.75;4.30;;;33.90;91.60;;;;;;4974658;28;20187;-77
2024/01/13 06:17:42;;;;;;;8.07;2.42;;;33.80;98.00;;;;;;4974636;28;20201;-76
2024/01/13 06:20:10;;;;;;;7.32;1.88;;;34.10;91.30;;;;;;4974554;28;20249;-76
2024/01/13 06:22:37;;;;;;;5.22;1.25;;;33.70;69.70;;;;;;4974106;28;20246;-77
2024/01/13 06:25:05;;;;;;;4.38;1.70;;;33.50;67.40;;;;;;4974913;28;20171;-76
2024/01/13 06:27:33;;;;;;;5.20;1.48;;;33.50;68.40;;;;;;4974661;28;20278;-72
2024/01/13 06:30:00;;;;;;;4.65;1.65;;;33.30;59.30;;;;;;4974293;28;20167;-77
2024/01/13 06:32:27;;;;;;;7.20;2.00;;;33.20;61.50;;;;;;4974325;28;20179;-77
2024/01/13 06:34:55;;;;;;;4.82;1.77;;;33.10;65.60;;;;;;4974590;28;20179;-75
2024/01/13 06:37:22;;;;;;;5.65;1.30;;;33.20;64.40;;;;;;4974517;28;20294;-78
2024/01/13 06:39:49;;;;;;;4.68;1.35;;;33.10;63.10;;;;;;4974160;28;20282;-77
2024/01/13 06:42:17;;;;;;;6.85;1.70;;;33.30;60.80;;;;;;4974435;28;20175;-75
2024/01/13 06:44:44;;;;;;;5.88;1.70;;;33.40;77.10;;;;;;4974427;28;20191;-75
2024/01/13 06:47:11;;;;;;;5.63;1.38;;;33.20;82.30;;;;;;4974386;28;20205;-75
2024/01/13 06:49:38;;;;;;;7.63;2.10;;;33.10;89.00;;;;;;4974201;28;20213;-76
2024/01/13 06:52:08;;;;;;;5.78;1.85;;;33.00;90.30;;;;;;4974311;28;20238;-76
2024/01/13 06:54:36;;;;;;;7.55;1.90;;;32.90;92.70;;;;;;4974238;28;20270;-76
2024/01/13 06:57:04;;;;;;;6.28;1.55;;;32.90;98.40;;;;;;4974335;28;20629;-76
2024/01/13 06:59:31;;;;;;;7.00;1.88;;;32.60;99.20;;;;;;4974054;28;20219;-77
2024/01/13 07:01:58;;;;;;;7.07;1.88;;;32.30;99.90;;;;;;4974087;28;20227;-77
2024/01/13 07:04:27;;;;;;;6.70;1.63;;;32.20;99.90;;;;;;4974347;28;20202;-77
2024/01/13 07:06:55;;;;;;;5.60;1.52;;;31.90;99.90;;;;;;4973013;28;20299;-77
2024/01/13 07:09:23;;;;;;;5.82;1.60;;;31.60;99.90;;;;;;4974225;28;20575;-77
2024/01/13 07:11:50;;;;;;;6.60;1.75;;;31.50;99.90;;;;;;4974314;28;20171;-77
2024/01/13 07:14:18;;;;;;;8.98;2.08;;;31.30;99.90;;;;;;4974320;28;20180;-76
2024/01/13 07:16:45;;;;;;;7.80;1.80;;;31.30;99.90;;;;;;4974107;28;20593;-76
2024/01/13 07:19:12;;;;;;;6.60;1.90;;;31.30;99.90;;;;;;4974161;28;20211;-74
2024/01/13 07:21:40;;;;;;;6.50;2.00;;;31.10;99.90;;;;;;4973906;28;20314;-76
2024/01/13 07:24:11;;;;;;;10.88;2.33;;;30.90;99.90;;;;;;4973911;28;20171;-75
2024/01/13 07:26:43;;;;;;;5.68;1.83;;;30.80;99.90;;;;;;4973961;28;20187;-76
2024/01/13 07:29:11;;;;;;;10.30;2.00;;;30.70;99.90;;;;;;4973902;28;20780;-76
2024/01/13 07:31:38;;;;;;;10.68;2.58;;;30.60;99.90;;;;;;4973957;28;20539;-77
2024/01/13 07:34:05;;;;;;;8.60;2.00;;;30.40;99.90;;;;;;4974139;28;20186;-77
2024/01/13 07:36:33;;;;;;;8.30;2.05;;;30.50;99.90;;;;;;4977588;28;20190;-76
2024/01/13 07:39:00;;;;;;;11.30;1.80;;;30.40;99.90;;;;;;4977964;28;20241;-78
2024/01/13 07:41:27;;;;;;;7.50;1.98;;;30.20;99.90;;;;;;4977984;28;20229;-77
2024/01/13 07:43:55;;;;;;;9.40;2.07;;;30.00;99.90;;;;;;4977292;28;20586;-77
2024/01/13 07:46:22;;;;;;;12.93;2.77;;;29.80;99.90;;;;;;4977464;28;20392;-75
2024/01/13 07:48:49;;;;;;;8.37;2.60;;;29.60;99.90;;;;;;4977082;28;20214;-76
2024/01/13 07:51:16;;;;;;;9.27;2.50;;;29.60;99.90;;;;;;4977626;28;20171;-76
2024/01/13 07:53:44;;;;;;;8.70;2.10;;;29.50;99.90;;;;;;4977694;28;20175;-74
2024/01/13 07:56:12;;;;;;;12.77;2.10;;;29.30;99.90;;;;;;4977210;28;20180;-76
2024/01/13 07:58:40;;;;;;;9.60;2.40;;;29.30;99.90;;;;;;4977161;28;20175;-76
2024/01/13 08:01:07;;;;;;;10.70;2.57;;;29.20;99.90;;;;;;4977126;28;20191;-75
2024/01/13 08:03:34;;;;;;;9.33;2.40;;;29.20;99.90;;;;;;4976973;28;20242;-75
2024/01/13 08:06:02;;;;;;;10.63;2.20;;;29.10;99.90;;;;;;4978901;28;20190;-75
2024/01/13 08:08:30;;;;;;;9.43;2.47;;;28.90;99.90;;;;;;4981597;28;20183;-76
2024/01/13 08:10:57;;;;;;;10.60;2.43;;;28.90;99.90;;;;;;4980506;28;20670;-76
2024/01/13 08:13:24;;;;;;;9.87;2.30;;;28.80;99.90;;;;;;4977682;28;20190;-76
2024/01/13 08:15:52;;;;;;;11.77;2.73;;;28.60;99.90;;;;;;4980416;28;20175;-76
2024/01/13 08:18:19;;;;;;;10.73;2.83;;;28.40;99.90;;;;;;4979621;28;20179;-75
2024/01/13 08:24:09;;;;;;;11.07;2.27;;;28.20;99.90;;;;;;4976059;28;20189;-71
2024/01/13 08:26:37;;;;;;;10.43;2.53;;;28.10;99.90;;;;;;4976554;28;20207;-75
2024/01/13 08:29:04;;;;;;;9.33;2.50;;;27.90;99.90;;;;;;4978526;28;20203;-74
2024/01/13 08:31:31;;;;;;;15.17;2.57;;;28.00;99.90;;;;;;4982576;28;20548;-74
2024/01/13 08:33:59;;;;;;;14.90;2.90;;;28.00;99.90;;;;;;4981939;28;20673;-75
2024/01/13 08:36:26;;;;;;;10.00;3.07;;;27.80;99.90;;;;;;4976943;28;20640;-76
2024/01/13 08:38:53;;;;;;;12.57;2.50;;;27.80;99.90;;;;;;4976351;28;20189;-75
2024/01/13 08:41:20;;;;;;;10.17;2.93;;;27.80;99.90;;;;;;4976465;28;20202;-74
2024/01/13 08:43:48;;;;;;;10.17;2.40;;;27.70;99.90;;;;;;4976329;28;20180;-75
2024/01/13 08:46:15;;;;;;;9.87;2.80;;;27.70;99.90;;;;;;4975764;28;20187;-74
2024/01/13 08:48:42;;;;;;;9.73;2.30;;;27.70;99.90;;;;;;4976343;28;20179;-76
2024/01/13 08:51:10;;;;;;;13.37;2.63;;;27.70;99.90;;;;;;4976654;28;20241;-75
2024/01/13 08:53:37;;;;;;;12.00;2.60;;;27.60;99.90;;;;;;4976127;28;20554;-74
2024/01/13 08:59:26;;;;;;;11.30;2.47;;;27.40;99.90;;;;;;4975229;28;20727;-76
2024/01/13 09:01:53;;;;;;;11.37;3.03;;;27.30;99.90;;;;;;4976146;28;20511;-76
2024/01/13 09:04:21;;;;;;;5.93;1.70;;;27.20;99.90;;;;;;4975629;28;20179;-74
2024/01/13 09:06:48;;;;;;;14.60;2.70;;;27.10;99.90;;;;;;4975683;28;20172;-77
2024/01/13 09:09:15;;;;;;;12.67;2.73;;;27.10;99.90;;;;;;4975798;28;20179;-77
2024/01/13 09:11:42;;;;;;;14.97;3.00;;;27.10;99.90;;;;;;4975981;28;20732;-76
2024/01/13 09:14:11;;;;;;;14.17;2.57;;;27.10;99.90;;;;;;4975500;28;20172;-76
2024/01/13 09:16:38;;;;;;;14.57;3.13;;;27.00;99.90;;;;;;4975330;28;20221;-76
2024/01/13 09:19:06;;;;;;;13.70;2.53;;;27.00;99.90;;;;;;4975336;28;20207;-77
2024/01/13 09:21:33;;;;;;;20.93;2.67;;;26.90;99.90;;;;;;4975235;28;20696;-76
2024/01/13 09:24:01;;;;;;;14.13;3.30;;;26.80;99.90;;;;;;4975587;28;20178;-76
2024/01/13 09:26:29;;;;;;;15.23;3.57;;;26.90;99.90;;;;;;4975845;28;20186;-76
2024/01/13 09:28:56;;;;;;;12.97;2.47;;;26.90;99.90;;;;;;4975510;28;20184;-74
2024/01/13 09:31:24;;;;;;;13.57;2.50;;;26.90;99.90;;;;;;4974054;28;20179;-72
2024/01/13 09:33:51;;;;;;;12.03;2.70;;;26.90;99.90;;;;;;4975327;28;20183;-75
2024/01/13 09:36:18;;;;;;;14.90;2.97;;;26.90;99.90;;;;;;4975367;28;20183;-78
2024/01/13 09:38:45;;;;;;;9.13;2.60;;;26.70;99.90;;;;;;4975213;28;20171;-76
2024/01/13 09:41:13;;;;;;;15.90;3.63;;;26.60;99.90;;;;;;4975177;28;20562;-73
2024/01/13 09:43:50;;;;;;;11.07;2.47;;;26.60;99.90;;;;;;4975157;28;20178;-72
2024/01/13 09:46:17;;;;;;;15.10;3.23;;;26.60;99.90;;;;;;4975149;28;20265;-73
2024/01/13 09:48:48;;;;;;;13.70;2.67;;;26.60;99.90;;;;;;4975005;28;20214;-75
2024/01/13 09:51:16;;;;;;;12.93;3.03;;;26.60;99.90;;;;;;4975279;28;20262;-76
2024/01/13 09:53:48;;;;;;;14.53;2.93;;;26.50;99.90;;;;;;4973742;28;20183;-75
2024/01/13 09:56:23;;;;;;;13.40;3.10;;;26.50;99.90;;;;;;4975353;28;20179;-75
2024/01/13 09:58:50;;;;;;;11.77;2.30;;;26.40;99.90;;;;;;4974294;28;20253;-76
2024/01/13 10:01:18;;;;;;;15.37;2.77;;;26.40;99.90;;;;;;4973637;28;20187;-75
2024/01/13 10:03:46;;;;;;;12.13;3.07;;;26.40;99.90;;;;;;4974754;28;20226;-75
2024/01/13 10:06:14;;;;;;;13.20;3.00;;;26.40;99.90;;;;;;4973423;28;20636;-76
2024/01/13 10:08:41;;;;;;;14.37;2.50;;;26.40;99.90;;;;;;4974847;28;20689;-75
2024/01/13 10:11:09;;;;;;;19.23;3.00;;;26.50;99.90;;;;;;4974938;28;20195;-76
2024/01/13 10:13:37;;;;;;;12.57;3.03;;;26.40;99.90;;;;;;4974766;28;20703;-77
2024/01/13 10:16:04;;;;;;;14.27;2.67;;;26.50;99.90;;;;;;4974853;28;20187;-75
2024/01/13 10:18:32;;;;;;;13.60;2.80;;;26.40;99.90;;;;;;4974593;28;20360;-76
2024/01/13 10:20:59;;;;;;;15.70;3.47;;;26.40;99.90;;;;;;4973167;28;20243;-76
2024/01/13 10:23:28;;;;;;;13.37;3.20;;;26.50;99.90;;;;;;4974907;28;20171;-76
2024/01/13 10:25:56;;;;;;;17.63;2.80;;;26.50;99.90;;;;;;4974448;28;20545;-76
2024/01/13 10:28:24;;;;;;;12.47;2.73;;;26.50;99.90;;;;;;4974689;28;20267;-76
2024/01/13 10:30:51;;;;;;;7.77;2.70;;;26.50;99.90;;;;;;4974722;28;20238;-76
2024/01/13 10:33:19;;;;;;;18.47;3.50;;;26.50;99.90;;;;;;4974552;28;20181;-76
2024/01/13 10:35:48;;;;;;;9.90;2.07;;;26.50;99.90;;;;;;4973266;28;20590;-76
2024/01/13 10:38:16;;;;;;;11.00;2.37;;;26.40;99.90;;;;;;4974758;28;20171;-76
2024/01/13 10:40:43;;;;;;;19.90;3.77;;;26.40;99.90;;;;;;4974542;28;20250;-76
2024/01/13 10:43:13;;;;;;;17.80;3.47;;;26.40;99.90;;;;;;4974456;28;20258;-76
2024/01/13 10:45:45;;;;;;;16.03;4.23;;;26.30;99.90;;;;;;4974563;28;20184;-75
2024/01/13 10:48:46;;;;;;;24.10;3.60;;;26.20;99.90;;;;;;4974577;28;20230;-71
2024/01/13 10:51:23;;;;;;;17.13;4.43;;;26.10;99.90;;;;;;4974117;28;20197;-70
2024/01/13 10:53:51;;;;;;;17.13;4.07;;;26.10;99.90;;;;;;4974403;28;20187;-76
2024/01/13 10:56:19;;;;;;;16.70;3.57;;;26.00;99.90;;;;;;4974472;28;20210;-76
2024/01/13 10:58:47;;;;;;;11.57;3.40;;;26.00;99.90;;;;;;4974274;28;20175;-76
2024/01/13 11:01:14;;;;;;;14.50;2.70;;;25.90;99.90;;;;;;4974321;28;20238;-76
2024/01/13 11:03:43;;;;;;;11.13;2.23;;;25.90;99.90;;;;;;4974416;28;20564;-77
2024/01/13 11:06:11;;;;;;;17.33;3.63;;;25.90;99.90;;;;;;4974584;28;20681;-75
2024/01/13 11:08:38;;;;;;;9.40;2.27;;;25.90;99.90;;;;;;4975186;28;20206;-76
2024/01/13 11:11:08;;;;;;;16.67;3.43;;;25.90;99.90;;;;;;4978038;28;20183;-76
2024/01/13 11:13:51;;;;;;;9.53;2.93;;;25.80;99.90;;;;;;4978013;28;20171;-77
2024/01/13 11:16:26;;;;;;;16.53;2.73;;;25.70;99.90;;;;;;4978118;28;20171;-76
2024/01/13 11:18:54;;;;;;;11.73;2.60;;;25.60;99.90;;;;;;4977832;28;20225;-73
2024/01/13 11:21:30;;;;;;;9.40;3.17;;;25.60;99.90;;;;;;4977623;28;20647;-75
2024/01/13 11:24:08;;;;;;;15.70;3.20;;;25.60;99.90;;;;;;4978108;28;20175;-73
2024/01/13 11:26:43;;;;;;;11.87;2.70;;;25.60;99.90;;;;;;4978090;28;20216;-76
2024/01/13 11:29:21;;;;;;;14.40;2.73;;;25.50;99.90;;;;;;4978389;28;20174;-76
2024/01/13 11:31:56;;;;;;;15.13;3.67;;;25.60;99.90;;;;;;4976863;28;20236;-76
2024/01/13 11:34:24;;;;;;;12.07;3.10;;;25.50;99.90;;;;;;4977579;28;20179;-73
2024/01/13 11:36:58;;;;;;;10.37;2.57;;;25.50;99.90;;;;;;4977633;28;20234;-75
2024/01/13 11:39:25;;;;;;;10.13;3.10;;;25.50;99.90;;;;;;4977337;28;20361;-75
2024/01/13 11:41:57;;;;;;;15.37;2.93;;;25.40;99.90;;;;;;4977442;28;20688;-76
2024/01/13 11:44:35;;;;;;;21.67;3.43;;;25.40;99.90;;;;;;4977436;28;20180;-76
2024/01/13 11:47:07;;;;;;;16.47;3.20;;;25.30;99.90;;;;;;4977597;28;20167;-73
2024/01/13 11:49:39;;;;;;;12.63;3.30;;;25.30;99.90;;;;;;4977375;28;20262;-74
2024/01/13 11:52:09;;;;;;;8.60;2.37;;;25.30;99.90;;;;;;4977558;28;20175;-74
2024/01/13 11:54:38;;;;;;;9.83;2.53;;;25.30;99.90;;;;;;4972796;28;20210;-71
2024/01/13 11:57:09;;;;;;;12.67;3.57;;;25.30;99.90;;;;;;4963331;28;20180;-72
2024/01/13 11:59:38;;;;;;;12.80;3.53;;;25.30;99.90;;;;;;4968525;28;20265;-72
2024/01/13 12:02:06;;;;;;;17.17;4.40;;;25.20;99.90;;;;;;4958014;28;20533;-72
2024/01/13 12:04:35;;;;;;;16.30;4.17;;;25.20;99.90;;;;;;4957883;28;20275;-73
2024/01/13 12:07:06;;;;;;;16.67;4.37;;;25.20;99.90;;;;;;4957453;28;20195;-73
2024/01/13 12:09:34;;;;;;;12.93;4.27;;;25.10;99.90;;;;;;4961884;28;20184;-73
2024/01/13 12:12:08;;;;;;;13.67;4.57;;;25.00;99.90;;;;;;4969505;28;20183;-72
2024/01/13 12:14:37;;;;;;;18.40;4.43;;;24.80;99.90;;;;;;4960231;28;20220;-72
2024/01/13 12:17:05;;;;;;;16.60;5.00;;;24.80;99.90;;;;;;4958913;28;20214;-73
2024/01/13 12:19:37;;;;;;;16.20;4.87;;;24.60;99.90;;;;;;4957236;28;20279;-72
2024/01/13 12:25:29;;;;;;;16.30;5.20;;;24.40;99.90;;;;;;4964513;28;20243;-72
2024/01/13 12:27:57;;;;;;;17.83;4.60;;;24.40;99.90;;;;;;4966238;28;20657;-72
2024/01/13 12:30:24;;;;;;;16.93;4.53;;;24.40;99.90;;;;;;4967078;28;20586;-72
2024/01/13 12:32:51;;;;;;;17.33;5.37;;;24.40;99.90;;;;;;4963977;28;20179;-72
2024/01/13 12:35:19;;;;;;;22.70;6.33;;;24.40;99.90;;;;;;4966257;28;20226;-72
2024/01/13 12:37:46;;;;;;;18.97;5.77;;;24.30;99.90;;;;;;4967072;28;20191;-72
2024/01/13 12:40:14;;;;;;;15.80;5.40;;;24.20;99.90;;;;;;4966590;28;20221;-72
2024/01/13 12:42:41;;;;;;;24.50;6.23;;;24.10;99.90;;;;;;4968800;28;20266;-72
2024/01/13 12:45:11;;;;;;;26.60;6.10;;;24.00;99.90;;;;;;4958352;28;20188;-72
2024/01/13 12:47:39;;;;;;;21.10;4.83;;;24.00;99.90;;;;;;4964051;28;20555;-72
2024/01/13 12:50:12;;;;;;;19.93;6.13;;;24.00;99.90;;;;;;4957077;28;20286;-72
2024/01/13 12:52:44;;;;;;;15.13;5.50;;;23.90;99.90;;;;;;4964920;28;20194;-72
2024/01/13 12:55:11;;;;;;;21.77;6.10;;;23.80;99.90;;;;;;4967882;28;20191;-72
2024/01/13 12:57:39;;;;;;;24.97;6.30;;;23.80;99.90;;;;;;4976200;28;20190;-72
2024/01/13 13:00:07;;;;;;;20.43;6.33;;;23.70;99.90;;;;;;4975691;28;20585;-72
2024/01/13 13:02:37;;;;;;;20.03;6.10;;;23.60;99.90;;;;;;4975022;28;20206;-73